Fairbanks, AK (99712)

7:43 PM AKDT on August 24, 2016 (GMT -0800)
| | Change Station

Elev -9999 ft 0.00 °N, 0.00 °E | Updated

Cloudy
Cloudy
59 °F
Feels Like 59 °F
N
3
Wind Variable Wind from SE
Gusts mph

Today
High -- | Low -- °F
--% Chance of Precip.
Yesterday
High -- | Low -- °F
Precip. -- in
Pressure 30.14 in
Visibility 10.0 miles
Clouds Overcast 8000 ft
Dew Point 50 °F
Humidity 73%
Rainfall --
Snow Depth Not available.
6:02 AM 9:34 PM
Waning Gibbous, 50% visible
METAR PAFB 250258Z AUTO 17005KT 10SM OVC080 21/11 A3013 RMK AO2 SLP206 60000 T02100107 57010
Pressure 30.14 in
Visibility 10.0 miles
Clouds Overcast 8000 ft
Dew Point 50 °F
Humidity 73%
Rainfall --
Snow Depth Not available.
6:02 AM 9:34 PM
Waning Gibbous, 50% visible
METAR PAFB 250258Z AUTO 17005KT 10SM OVC080 21/11 A3013 RMK AO2 SLP206 60000 T02100107 57010

10-Day Weather Forecast

Almanac

Astronomy

Aug. 24, 2016 Rise Set
Actual Time
Civil Twilight
Nautical Twilight
Astronomical Twilight
Moon
Length of Visible Light
Length of Day
Tomorrow will be .
, % of the Moon is Illuminated

Today's Extremes

State Highs State Lows

Community

WunderPhotos

Upload Photos

1,934,790 photos uploaded!

WunderBlog® & News

Nearby

Air Quality

  Air Quality AQ Index Pollutant
Not available.

Snow Depth

Station Depth Elevation

Earthquake Activity

City Distance Mag. Time & Date
Minimum magnitude displayed is 2.5.

Coastal Water Temperatures

Place Temperature

Stations

Nearby Weather Stations

Station Location Temp. Windchill Dew Point Humidity Wind Precip. Elev Updated Type
                   

Watches & Warnings

There are currently no watches in effect.